sensor_id;sensor_type;location;lat;lon;timestamp;pressure;altitude;pressure_sealevel;temperature;humidity
4858;BME280;58975;51.978;8.472;2022-12-18T00:02:14;101610.50;;;-10.31;100.00
4858;BME280;58975;51.978;8.472;2022-12-18T00:07:11;101601.16;;;-10.27;100.00
4858;BME280;58975;51.978;8.472;2022-12-18T00:12:07;101597.50;;;-10.37;100.00
4858;BME280;58975;51.978;8.472;2022-12-18T00:17:11;101594.09;;;-10.34;100.00
4858;BME280;58975;51.978;8.472;2022-12-18T00:22:07;101599.84;;;-10.47;100.00
4858;BME280;58975;51.978;8.472;2022-12-18T00:27:04;101614.81;;;-10.66;100.00
4858;BME280;58975;51.978;8.472;2022-12-18T00:32:00;101618.63;;;-10.50;100.00
4858;BME280;58975;51.978;8.472;2022-12-18T00:36:56;101625.09;;;-10.67;100.00
4858;BME280;58975;51.978;8.472;2022-12-18T00:41:53;101609.03;;;-10.57;100.00
4858;BME280;58975;51.978;8.472;2022-12-18T00:47:08;101615.63;;;-10.68;100.00
4858;BME280;58975;51.978;8.472;2022-12-18T00:52:04;101618.63;;;-10.50;100.00
4858;BME280;58975;51.978;8.472;2022-12-18T00:57:01;101612.41;;;-10.60;100.00
4858;BME280;58975;51.978;8.472;2022-12-18T01:01:57;101611.78;;;-10.51;100.00
4858;BME280;58975;51.978;8.472;2022-12-18T01:06:54;101618.31;;;-10.28;100.00
4858;BME280;58975;51.978;8.472;2022-12-18T01:11:50;101606.81;;;-10.42;100.00
4858;BME280;58975;51.978;8.472;2022-12-18T01:16:46;101598.97;;;-10.48;100.00
4858;BME280;58975;51.978;8.472;2022-12-18T01:21:43;101601.78;;;-10.37;100.00
4858;BME280;58975;51.978;8.472;2022-12-18T01:26:39;101595.56;;;-10.45;100.00
4858;BME280;58975;51.978;8.472;2022-12-18T01:31:36;101597.97;;;-10.14;100.00
4858;BME280;58975;51.978;8.472;2022-12-18T01:36:34;101606.28;;;-9.87;100.00
4858;BME280;58975;51.978;8.472;2022-12-18T01:41:33;101610.72;;;-9.81;100.00
4858;BME280;58975;51.978;8.472;2022-12-18T01:46:48;101602.06;;;-9.83;100.00
4858;BME280;58975;51.978;8.472;2022-12-18T01:51:44;101604.75;;;-9.79;100.00
4858;BME280;58975;51.978;8.472;2022-12-18T01:56:41;101602.72;;;-9.93;100.00
4858;BME280;58975;51.978;8.472;2022-12-18T02:01:37;101598.22;;;-10.03;100.00
4858;BME280;58975;51.978;8.472;2022-12-18T02:06:40;101610.09;;;-10.10;100.00
4858;BME280;58975;51.978;8.472;2022-12-18T02:11:54;101608.53;;;-10.03;100.00
4858;BME280;58975;51.978;8.472;2022-12-18T02:27:01;101607.72;;;-9.99;100.00
4858;BME280;58975;51.978;8.472;2022-12-18T02:31:59;101598.94;;;-10.09;100.00
4858;BME280;58975;51.978;8.472;2022-12-18T02:36:57;101601.56;;;-10.08;100.00
4858;BME280;58975;51.978;8.472;2022-12-18T02:41:56;101587.59;;;-10.19;100.00
4858;BME280;58975;51.978;8.472;2022-12-18T02:46:54;101579.38;;;-10.01;100.00
4858;BME280;58975;51.978;8.472;2022-12-18T02:51:54;101585.25;;;-10.08;100.00
4858;BME280;58975;51.978;8.472;2022-12-18T02:56:54;101591.38;;;-10.01;100.00
4858;BME280;58975;51.978;8.472;2022-12-18T03:02:00;101593.31;;;-9.91;100.00
4858;BME280;58975;51.978;8.472;2022-12-18T03:07:01;101599.13;;;-10.01;100.00
4858;BME280;58975;51.978;8.472;2022-12-18T03:12:06;101591.56;;;-9.94;100.00
4858;BME280;58975;51.978;8.472;2022-12-18T03:17:23;101586.22;;;-10.01;100.00
4858;BME280;58975;51.978;8.472;2022-12-18T03:22:23;101581.44;;;-9.83;100.00
4858;BME280;58975;51.978;8.472;2022-12-18T03:27:21;101593.66;;;-9.76;100.00
4858;BME280;58975;51.978;8.472;2022-12-18T03:32:27;101607.47;;;-9.71;100.00
4858;BME280;58975;51.978;8.472;2022-12-18T03:37:25;101605.41;;;-9.87;100.00
4858;BME280;58975;51.978;8.472;2022-12-18T03:47:58;101600.78;;;-9.63;100.00
4858;BME280;58975;51.978;8.472;2022-12-18T03:57:59;101593.28;;;-9.93;100.00
4858;BME280;58975;51.978;8.472;2022-12-18T04:03:00;101582.56;;;-10.13;100.00
4858;BME280;58975;51.978;8.472;2022-12-18T04:07:57;101583.31;;;-10.20;100.00
4858;BME280;58975;51.978;8.472;2022-12-18T04:12:57;101581.09;;;-10.01;100.00
4858;BME280;58975;51.978;8.472;2022-12-18T04:17:53;101592.22;;;-10.02;100.00
4858;BME280;58975;51.978;8.472;2022-12-18T04:22:50;101592.88;;;-10.13;100.00
4858;BME280;58975;51.978;8.472;2022-12-18T04:27:46;101600.25;;;-10.29;100.00
4858;BME280;58975;51.978;8.472;2022-12-18T04:32:42;101601.94;;;-10.31;100.00
4858;BME280;58975;51.978;8.472;2022-12-18T04:37:45;101608.78;;;-10.32;100.00
4858;BME280;58975;51.978;8.472;2022-12-18T04:42:42;101606.56;;;-10.14;100.00
4858;BME280;58975;51.978;8.472;2022-12-18T04:47:38;101616.06;;;-10.11;100.00
4858;BME280;58975;51.978;8.472;2022-12-18T04:52:35;101617.63;;;-10.21;100.00
4858;BME280;58975;51.978;8.472;2022-12-18T04:57:32;101612.56;;;-10.16;100.00
4858;BME280;58975;51.978;8.472;2022-12-18T05:02:28;101594.63;;;-10.12;100.00
4858;BME280;58975;51.978;8.472;2022-12-18T05:07:25;101594.72;;;-10.06;100.00
4858;BME280;58975;51.978;8.472;2022-12-18T05:12:21;101587.13;;;-9.99;100.00
4858;BME280;58975;51.978;8.472;2022-12-18T05:17:18;101577.41;;;-9.72;100.00
4858;BME280;58975;51.978;8.472;2022-12-18T05:22:14;101571.78;;;-9.53;100.00
4858;BME280;58975;51.978;8.472;2022-12-18T05:27:10;101581.88;;;-9.17;100.00
4858;BME280;58975;51.978;8.472;2022-12-18T05:32:07;101574.34;;;-9.05;100.00
4858;BME280;58975;51.978;8.472;2022-12-18T05:37:03;101577.97;;;-8.95;100.00
4858;BME280;58975;51.978;8.472;2022-12-18T05:42:00;101573.94;;;-8.80;100.00
4858;BME280;58975;51.978;8.472;2022-12-18T05:46:56;101577.31;;;-8.84;100.00
4858;BME280;58975;51.978;8.472;2022-12-18T05:51:53;101573.13;;;-8.77;100.00
4858;BME280;58975;51.978;8.472;2022-12-18T05:56:49;101572.31;;;-8.73;100.00
4858;BME280;58975;51.978;8.472;2022-12-18T06:01:46;101576.88;;;-8.57;100.00
4858;BME280;58975;51.978;8.472;2022-12-18T06:06:43;101579.03;;;-8.29;100.00
4858;BME280;58975;51.978;8.472;2022-12-18T06:11:39;101584.31;;;-8.20;100.00
4858;BME280;58975;51.978;8.472;2022-12-18T06:16:36;101589.72;;;-8.01;100.00
4858;BME280;58975;51.978;8.472;2022-12-18T06:21:32;101601.91;;;-7.91;100.00
4858;BME280;58975;51.978;8.472;2022-12-18T06:26:29;101599.41;;;-7.88;100.00
4858;BME280;58975;51.978;8.472;2022-12-18T06:31:26;101602.63;;;-8.03;100.00
4858;BME280;58975;51.978;8.472;2022-12-18T06:36:23;101605.13;;;-8.07;100.00
4858;BME280;58975;51.978;8.472;2022-12-18T06:41:20;101609.66;;;-7.94;100.00
4858;BME280;58975;51.978;8.472;2022-12-18T06:46:17;101615.94;;;-7.77;100.00
4858;BME280;58975;51.978;8.472;2022-12-18T06:51:16;101610.81;;;-7.71;100.00
4858;BME280;58975;51.978;8.472;2022-12-18T06:56:13;101622.13;;;-7.63;100.00
4858;BME280;58975;51.978;8.472;2022-12-18T07:01:11;101617.78;;;-7.64;100.00
4858;BME280;58975;51.978;8.472;2022-12-18T07:06:15;101619.81;;;-7.40;100.00
4858;BME280;58975;51.978;8.472;2022-12-18T07:11:13;101620.81;;;-7.28;100.00
4858;BME280;58975;51.978;8.472;2022-12-18T07:16:12;101615.81;;;-7.12;100.00
4858;BME280;58975;51.978;8.472;2022-12-18T07:21:19;101610.44;;;-7.34;100.00
4858;BME280;58975;51.978;8.472;2022-12-18T07:26:18;101599.09;;;-7.45;100.00
4858;BME280;58975;51.978;8.472;2022-12-18T07:31:17;101608.56;;;-7.44;100.00
4858;BME280;58975;51.978;8.472;2022-12-18T07:36:14;101606.97;;;-7.34;100.00
4858;BME280;58975;51.978;8.472;2022-12-18T07:41:12;101608.81;;;-7.23;100.00
4858;BME280;58975;51.978;8.472;2022-12-18T07:46:10;101622.88;;;-6.99;100.00
4858;BME280;58975;51.978;8.472;2022-12-18T07:51:09;101628.91;;;-6.97;100.00
4858;BME280;58975;51.978;8.472;2022-12-18T07:56:08;101609.28;;;-6.76;100.00
4858;BME280;58975;51.978;8.472;2022-12-18T08:01:25;101611.22;;;-6.50;100.00
4858;BME280;58975;51.978;8.472;2022-12-18T08:06:22;101600.91;;;-6.44;100.00
4858;BME280;58975;51.978;8.472;2022-12-18T08:11:20;101596.75;;;-6.24;100.00
4858;BME280;58975;51.978;8.472;2022-12-18T08:16:17;101599.53;;;-5.91;100.00
4858;BME280;58975;51.978;8.472;2022-12-18T08:21:18;101591.88;;;-5.56;100.00
4858;BME280;58975;51.978;8.472;2022-12-18T08:26:17;101586.75;;;-5.38;100.00
4858;BME280;58975;51.978;8.472;2022-12-18T08:31:14;101573.84;;;-5.15;100.00
4858;BME280;58975;51.978;8.472;2022-12-18T08:36:11;101562.63;;;-4.94;100.00
4858;BME280;58975;51.978;8.472;2022-12-18T08:41:10;101572.16;;;-4.80;100.00
4858;BME280;58975;51.978;8.472;2022-12-18T08:46:06;101573.00;;;-4.64;100.00
4858;BME280;58975;51.978;8.472;2022-12-18T08:51:03;101578.19;;;-4.46;100.00
4858;BME280;58975;51.978;8.472;2022-12-18T08:55:59;101600.72;;;-4.30;100.00
4858;BME280;58975;51.978;8.472;2022-12-18T09:01:03;101581.63;;;-4.13;100.00
4858;BME280;58975;51.978;8.472;2022-12-18T09:06:00;101581.56;;;-3.95;100.00
4858;BME280;58975;51.978;8.472;2022-12-18T09:10:56;101593.66;;;-3.76;100.00
4858;BME280;58975;51.978;8.472;2022-12-18T09:15:54;101588.41;;;-3.55;100.00
4858;BME280;58975;51.978;8.472;2022-12-18T09:20:51;101594.47;;;-3.50;100.00
4858;BME280;58975;51.978;8.472;2022-12-18T09:25:48;101602.22;;;-3.44;100.00
4858;BME280;58975;51.978;8.472;2022-12-18T09:30:47;101605.72;;;-3.46;100.00
4858;BME280;58975;51.978;8.472;2022-12-18T09:35:46;101590.97;;;-3.50;100.00
4858;BME280;58975;51.978;8.472;2022-12-18T09:40:45;101592.69;;;-3.45;100.00
4858;BME280;58975;51.978;8.472;2022-12-18T09:45:50;101603.09;;;-3.42;100.00
4858;BME280;58975;51.978;8.472;2022-12-18T09:50:50;101590.06;;;-3.39;100.00
4858;BME280;58975;51.978;8.472;2022-12-18T09:55:50;101595.19;;;-3.23;100.00
4858;BME280;58975;51.978;8.472;2022-12-18T10:00:51;101607.28;;;-3.10;100.00
4858;BME280;58975;51.978;8.472;2022-12-18T10:10:52;101603.44;;;-2.58;100.00
4858;BME280;58975;51.978;8.472;2022-12-18T10:20:56;101567.56;;;-2.28;100.00
4858;BME280;58975;51.978;8.472;2022-12-18T10:26:06;101552.69;;;-2.22;100.00
4858;BME280;58975;51.978;8.472;2022-12-18T10:31:14;101540.44;;;-2.12;100.00
4858;BME280;58975;51.978;8.472;2022-12-18T10:36:14;101528.06;;;-1.98;100.00
4858;BME280;58975;51.978;8.472;2022-12-18T10:46:17;101513.91;;;-1.79;100.00
4858;BME280;58975;51.978;8.472;2022-12-18T10:51:21;101526.94;;;-1.74;100.00
4858;BME280;58975;51.978;8.472;2022-12-18T10:56:19;101515.50;;;-1.66;100.00
4858;BME280;58975;51.978;8.472;2022-12-18T11:01:17;101509.25;;;-1.54;100.00
4858;BME280;58975;51.978;8.472;2022-12-18T11:06:18;101489.19;;;-1.51;100.00
4858;BME280;58975;51.978;8.472;2022-12-18T11:11:21;101484.81;;;-1.52;100.00
4858;BME280;58975;51.978;8.472;2022-12-18T11:16:19;101480.34;;;-1.42;100.00
4858;BME280;58975;51.978;8.472;2022-12-18T11:21:16;101453.31;;;-1.41;100.00
4858;BME280;58975;51.978;8.472;2022-12-18T11:26:13;101436.75;;;-1.38;100.00
4858;BME280;58975;51.978;8.472;2022-12-18T11:31:20;101441.84;;;-1.29;100.00
4858;BME280;58975;51.978;8.472;2022-12-18T11:36:18;101430.34;;;-1.18;100.00
4858;BME280;58975;51.978;8.472;2022-12-18T11:41:23;101436.38;;;-1.16;100.00
4858;BME280;58975;51.978;8.472;2022-12-18T11:46:55;101431.75;;;-0.99;100.00
4858;BME280;58975;51.978;8.472;2022-12-18T11:52:32;101429.81;;;-0.87;100.00
4858;BME280;58975;51.978;8.472;2022-12-18T11:57:25;101412.25;;;-0.81;100.00
4858;BME280;58975;51.978;8.472;2022-12-18T12:08:56;101400.91;;;-0.80;100.00
4858;BME280;58975;51.978;8.472;2022-12-18T12:29:34;101375.44;;;-0.70;100.00
4858;BME280;58975;51.978;8.472;2022-12-18T12:39:41;101367.56;;;-0.69;100.00
4858;BME280;58975;51.978;8.472;2022-12-18T12:44:44;101376.34;;;-0.73;100.00
4858;BME280;58975;51.978;8.472;2022-12-18T12:49:51;101378.00;;;-0.67;100.00
4858;BME280;58975;51.978;8.472;2022-12-18T12:54:48;101381.53;;;-0.70;100.00
4858;BME280;58975;51.978;8.472;2022-12-18T13:04:57;101359.78;;;-0.72;100.00
4858;BME280;58975;51.978;8.472;2022-12-18T13:10:24;101337.06;;;-0.70;100.00
4858;BME280;58975;51.978;8.472;2022-12-18T13:15:38;101338.84;;;-0.72;100.00
4858;BME280;58975;51.978;8.472;2022-12-18T13:20:36;101321.41;;;-0.71;100.00
4858;BME280;58975;51.978;8.472;2022-12-18T13:25:35;101316.19;;;-0.71;100.00
4858;BME280;58975;51.978;8.472;2022-12-18T13:35:39;101287.38;;;-0.70;100.00
4858;BME280;58975;51.978;8.472;2022-12-18T13:45:38;101295.06;;;-0.62;100.00
4858;BME280;58975;51.978;8.472;2022-12-18T13:50:36;101308.19;;;-0.64;100.00
4858;BME280;58975;51.978;8.472;2022-12-18T13:55:33;101295.09;;;-0.64;100.00
4858;BME280;58975;51.978;8.472;2022-12-18T14:00:30;101296.81;;;-0.63;100.00
4858;BME280;58975;51.978;8.472;2022-12-18T14:05:28;101285.53;;;-0.65;100.00
4858;BME280;58975;51.978;8.472;2022-12-18T14:10:26;101291.69;;;-0.67;100.00
4858;BME280;58975;51.978;8.472;2022-12-18T14:15:43;101276.88;;;-0.67;100.00
4858;BME280;58975;51.978;8.472;2022-12-18T14:20:44;101293.38;;;-0.66;100.00
4858;BME280;58975;51.978;8.472;2022-12-18T14:25:47;101278.56;;;-0.66;100.00
4858;BME280;58975;51.978;8.472;2022-12-18T14:30:45;101278.63;;;-0.69;100.00
4858;BME280;58975;51.978;8.472;2022-12-18T14:36:02;101291.78;;;-0.72;100.00
4858;BME280;58975;51.978;8.472;2022-12-18T14:41:01;101277.06;;;-0.77;100.00
4858;BME280;58975;51.978;8.472;2022-12-18T14:45:58;101262.31;;;-0.80;100.00
4858;BME280;58975;51.978;8.472;2022-12-18T14:50:58;101266.66;;;-0.79;100.00
4858;BME280;58975;51.978;8.472;2022-12-18T14:55:56;101261.59;;;-0.88;100.00
4858;BME280;58975;51.978;8.472;2022-12-18T15:00:52;101265.16;;;-0.92;100.00
4858;BME280;58975;51.978;8.472;2022-12-18T15:05:49;101254.84;;;-0.98;100.00
4858;BME280;58975;51.978;8.472;2022-12-18T15:10:47;101248.84;;;-1.03;100.00
4858;BME280;58975;51.978;8.472;2022-12-18T15:15:44;101251.44;;;-1.03;100.00
4858;BME280;58975;51.978;8.472;2022-12-18T15:20:52;101251.53;;;-1.09;100.00
4858;BME280;58975;51.978;8.472;2022-12-18T15:31:17;101226.50;;;-1.19;100.00
4858;BME280;58975;51.978;8.472;2022-12-18T15:36:16;101222.16;;;-1.20;100.00
4858;BME280;58975;51.978;8.472;2022-12-18T15:41:21;101211.75;;;-1.22;100.00
4858;BME280;58975;51.978;8.472;2022-12-18T15:46:24;101191.81;;;-1.29;100.00
4858;BME280;58975;51.978;8.472;2022-12-18T15:51:25;101190.13;;;-1.31;100.00
4858;BME280;58975;51.978;8.472;2022-12-18T15:56:22;101188.47;;;-1.35;100.00
4858;BME280;58975;51.978;8.472;2022-12-18T16:01:38;101191.09;;;-1.35;100.00
4858;BME280;58975;51.978;8.472;2022-12-18T16:06:38;101187.69;;;-1.40;100.00
4858;BME280;58975;51.978;8.472;2022-12-18T16:11:54;101185.06;;;-1.39;100.00
4858;BME280;58975;51.978;8.472;2022-12-18T16:16:53;101163.38;;;-1.42;100.00
4858;BME280;58975;51.978;8.472;2022-12-18T16:21:52;101155.59;;;-1.46;100.00
4858;BME280;58975;51.978;8.472;2022-12-18T16:26:49;101148.56;;;-1.42;100.00
4858;BME280;58975;51.978;8.472;2022-12-18T16:31:47;101138.03;;;-1.39;100.00
4858;BME280;58975;51.978;8.472;2022-12-18T16:36:43;101138.03;;;-1.37;100.00
4858;BME280;58975;51.978;8.472;2022-12-18T16:41:40;101135.41;;;-1.37;100.00
4858;BME280;58975;51.978;8.472;2022-12-18T16:46:37;101141.50;;;-1.38;100.00
4858;BME280;58975;51.978;8.472;2022-12-18T16:51:34;101126.72;;;-1.39;100.00
4858;BME280;58975;51.978;8.472;2022-12-18T16:56:31;101122.34;;;-1.37;100.00
4858;BME280;58975;51.978;8.472;2022-12-18T17:01:28;101104.00;;;-1.34;100.00
4858;BME280;58975;51.978;8.472;2022-12-18T17:06:27;101098.75;;;-1.34;100.00
4858;BME280;58975;51.978;8.472;2022-12-18T17:11:24;101096.97;;;-1.32;100.00
4858;BME280;58975;51.978;8.472;2022-12-18T17:16:23;101098.72;;;-1.33;100.00
4858;BME280;58975;51.978;8.472;2022-12-18T17:21:19;101103.91;;;-1.31;100.00
4858;BME280;58975;51.978;8.472;2022-12-18T17:26:16;101083.88;;;-1.31;100.00
4858;BME280;58975;51.978;8.472;2022-12-18T17:31:18;101085.66;;;-1.33;100.00
4858;BME280;58975;51.978;8.472;2022-12-18T17:36:15;101078.59;;;-1.28;100.00
4858;BME280;58975;51.978;8.472;2022-12-18T17:41:12;101086.31;;;-1.23;100.00
4858;BME280;58975;51.978;8.472;2022-12-18T17:46:08;101074.16;;;-1.24;100.00
4858;BME280;58975;51.978;8.472;2022-12-18T17:51:06;101073.34;;;-1.26;100.00
4858;BME280;58975;51.978;8.472;2022-12-18T17:56:04;101070.84;;;-1.32;100.00
4858;BME280;58975;51.978;8.472;2022-12-18T18:01:04;101063.94;;;-1.35;100.00
4858;BME280;58975;51.978;8.472;2022-12-18T18:06:01;101074.47;;;-1.39;100.00
4858;BME280;58975;51.978;8.472;2022-12-18T18:10:57;101065.94;;;-1.48;100.00
4858;BME280;58975;51.978;8.472;2022-12-18T18:16:17;101084.31;;;-1.52;100.00
4858;BME280;58975;51.978;8.472;2022-12-18T18:21:13;101086.09;;;-1.54;100.00
4858;BME280;58975;51.978;8.472;2022-12-18T18:26:10;101072.16;;;-1.53;100.00
4858;BME280;58975;51.978;8.472;2022-12-18T18:31:08;101070.53;;;-1.59;100.00
4858;BME280;58975;51.978;8.472;2022-12-18T18:36:08;101078.44;;;-1.63;100.00
4858;BME280;58975;51.978;8.472;2022-12-18T18:41:05;101053.41;;;-1.73;100.00
4858;BME280;58975;51.978;8.472;2022-12-18T18:46:03;101064.75;;;-1.76;100.00
4858;BME280;58975;51.978;8.472;2022-12-18T18:51:03;101053.53;;;-1.79;100.00
4858;BME280;58975;51.978;8.472;2022-12-18T18:56:00;101075.41;;;-1.85;100.00
4858;BME280;58975;51.978;8.472;2022-12-18T19:01:17;101061.56;;;-1.90;100.00
4858;BME280;58975;51.978;8.472;2022-12-18T19:06:26;101054.69;;;-1.94;100.00
4858;BME280;58975;51.978;8.472;2022-12-18T19:11:24;101067.75;;;-1.96;100.00
4858;BME280;58975;51.978;8.472;2022-12-18T19:16:40;101066.97;;;-1.99;100.00
4858;BME280;58975;51.978;8.472;2022-12-18T19:21:36;101072.16;;;-1.96;100.00
4858;BME280;58975;51.978;8.472;2022-12-18T19:26:33;101079.25;;;-2.04;100.00
4858;BME280;58975;51.978;8.472;2022-12-18T19:31:30;101081.91;;;-2.07;100.00
4858;BME280;58975;51.978;8.472;2022-12-18T19:36:32;101082.88;;;-2.13;100.00
4858;BME280;58975;51.978;8.472;2022-12-18T19:41:28;101086.34;;;-2.12;100.00
4858;BME280;58975;51.978;8.472;2022-12-18T19:46:29;101085.59;;;-2.19;100.00
4858;BME280;58975;51.978;8.472;2022-12-18T19:51:28;101096.94;;;-2.20;100.00
4858;BME280;58975;51.978;8.472;2022-12-18T19:56:28;101092.66;;;-2.24;100.00
4858;BME280;58975;51.978;8.472;2022-12-18T20:01:26;101095.22;;;-2.22;100.00
4858;BME280;58975;51.978;8.472;2022-12-18T20:06:31;101082.22;;;-2.25;100.00
4858;BME280;58975;51.978;8.472;2022-12-18T20:11:29;101086.63;;;-2.27;100.00
4858;BME280;58975;51.978;8.472;2022-12-18T20:16:26;101071.81;;;-2.27;100.00
4858;BME280;58975;51.978;8.472;2022-12-18T20:21:23;101074.47;;;-2.28;100.00
4858;BME280;58975;51.978;8.472;2022-12-18T20:26:21;101091.94;;;-2.32;100.00
4858;BME280;58975;51.978;8.472;2022-12-18T20:31:18;101078.97;;;-2.36;100.00
4858;BME280;58975;51.978;8.472;2022-12-18T20:36:17;101083.22;;;-2.32;100.00
4858;BME280;58975;51.978;8.472;2022-12-18T20:41:19;101084.16;;;-2.36;100.00
4858;BME280;58975;51.978;8.472;2022-12-18T20:46:17;101092.06;;;-2.40;100.00
4858;BME280;58975;51.978;8.472;2022-12-18T20:51:17;101078.06;;;-2.35;100.00
4858;BME280;58975;51.978;8.472;2022-12-18T20:56:19;101065.97;;;-2.40;100.00
4858;BME280;58975;51.978;8.472;2022-12-18T21:01:19;101072.06;;;-2.41;100.00
4858;BME280;58975;51.978;8.472;2022-12-18T21:06:19;101074.63;;;-2.38;100.00
4858;BME280;58975;51.978;8.472;2022-12-18T21:11:22;101071.13;;;-2.36;100.00
4858;BME280;58975;51.978;8.472;2022-12-18T21:16:39;101061.56;;;-2.38;100.00
4858;BME280;58975;51.978;8.472;2022-12-18T21:21:35;101058.09;;;-2.36;100.00
4858;BME280;58975;51.978;8.472;2022-12-18T21:26:34;101051.81;;;-2.26;100.00
4858;BME280;58975;51.978;8.472;2022-12-18T21:31:40;101059.53;;;-2.20;100.00
4858;BME280;58975;51.978;8.472;2022-12-18T21:36:37;101058.63;;;-2.19;100.00
4858;BME280;58975;51.978;8.472;2022-12-18T21:41:34;101061.94;;;-2.08;100.00
4858;BME280;58975;51.978;8.472;2022-12-18T21:46:50;101068.91;;;-2.10;100.00
4858;BME280;58975;51.978;8.472;2022-12-18T21:51:57;101066.34;;;-2.12;100.00
4858;BME280;58975;51.978;8.472;2022-12-18T21:56:55;101058.47;;;-2.09;100.00
4858;BME280;58975;51.978;8.472;2022-12-18T22:01:53;101052.25;;;-2.03;100.00
4858;BME280;58975;51.978;8.472;2022-12-18T22:06:50;101052.09;;;-1.96;100.00
4858;BME280;58975;51.978;8.472;2022-12-18T22:11:48;101046.06;;;-1.99;100.00
4858;BME280;58975;51.978;8.472;2022-12-18T22:16:45;101033.00;;;-1.98;100.00
4858;BME280;58975;51.978;8.472;2022-12-18T22:21:44;101029.53;;;-1.97;100.00
4858;BME280;58975;51.978;8.472;2022-12-18T22:26:42;101037.31;;;-1.95;100.00
4858;BME280;58975;51.978;8.472;2022-12-18T22:31:39;101042.28;;;-1.83;100.00
4858;BME280;58975;51.978;8.472;2022-12-18T22:36:38;101019.63;;;-1.81;100.00
4858;BME280;58975;51.978;8.472;2022-12-18T22:41:35;101015.22;;;-1.79;100.00
4858;BME280;58975;51.978;8.472;2022-12-18T22:46:35;101013.41;;;-1.75;100.00
4858;BME280;58975;51.978;8.472;2022-12-18T22:51:32;100997.72;;;-1.74;100.00
4858;BME280;58975;51.978;8.472;2022-12-18T22:56:29;101001.13;;;-1.70;100.00
4858;BME280;58975;51.978;8.472;2022-12-18T23:01:27;100988.88;;;-1.68;100.00
4858;BME280;58975;51.978;8.472;2022-12-18T23:06:26;100993.28;;;-1.69;100.00
4858;BME280;58975;51.978;8.472;2022-12-18T23:11:23;100998.34;;;-1.63;100.00
4858;BME280;58975;51.978;8.472;2022-12-18T23:16:21;100987.03;;;-1.62;100.00
4858;BME280;58975;51.978;8.472;2022-12-18T23:21:18;100980.00;;;-1.60;100.00
4858;BME280;58975;51.978;8.472;2022-12-18T23:26:18;100978.28;;;-1.61;100.00
4858;BME280;58975;51.978;8.472;2022-12-18T23:31:18;100973.75;;;-1.53;100.00
4858;BME280;58975;51.978;8.472;2022-12-18T23:36:16;100964.16;;;-1.52;100.00
4858;BME280;58975;51.978;8.472;2022-12-18T23:41:14;100955.34;;;-1.48;100.00
4858;BME280;58975;51.978;8.472;2022-12-18T23:46:21;100958.75;;;-1.43;100.00
4858;BME280;58975;51.978;8.472;2022-12-18T23:51:20;100949.06;;;-1.39;100.00
4858;BME280;58975;51.978;8.472;2022-12-18T23:56:21;100933.41;;;-1.39;100.00
